createdAt,value
2019-03-05T00:02:14.175Z,99575.27
2019-03-05T00:04:45.443Z,99576.77
2019-03-05T00:07:16.553Z,99583.69
2019-03-05T00:09:47.721Z,99579.20
2019-03-05T00:12:18.766Z,99567.02
2019-03-05T00:14:49.983Z,99584.39
2019-03-05T00:17:21.339Z,99580.41
2019-03-05T00:19:52.549Z,99581.91
2019-03-05T00:22:23.713Z,99593.33
2019-03-05T00:25:12.125Z,99606.03
2019-03-05T00:28:25.083Z,99584.39
2019-03-05T00:31:12.097Z,99598.77
2019-03-05T00:34:20.383Z,99590.16
2019-03-05T00:37:09.579Z,99603.39
2019-03-05T00:40:32.426Z,99601.09
2019-03-05T00:43:53.998Z,99593.33
2019-03-05T00:47:14.661Z,99600.09
2019-03-05T00:51:00.971Z,99594.16
2019-03-05T00:54:32.471Z,99603.27
2019-03-05T00:57:21.094Z,99607.23
2019-03-05T01:00:32.236Z,99612.36
2019-03-05T01:03:22.269Z,99608.36
2019-03-05T01:06:25.363Z,99615.30
2019-03-05T01:08:57.973Z,99606.55
2019-03-05T01:11:29.618Z,99612.33
2019-03-05T01:14:01.083Z,99618.45
2019-03-05T01:16:34.529Z,99619.78
2019-03-05T01:19:05.709Z,99628.88
2019-03-05T01:21:36.893Z,99624.42
2019-03-05T01:24:08.585Z,99626.42
2019-03-05T01:26:39.756Z,99628.05
2019-03-05T01:29:10.915Z,99620.28
2019-03-05T01:32:06.840Z,99634.34
2019-03-05T01:34:52.295Z,99631.86
2019-03-05T01:37:23.645Z,99631.20
2019-03-05T01:40:13.616Z,99636.16
2019-03-05T01:42:44.776Z,99639.62
2019-03-05T01:45:16.943Z,99635.65
2019-03-05T01:47:48.137Z,99631.84
2019-03-05T01:50:19.426Z,99635.81
2019-03-05T01:52:50.545Z,99635.65
2019-03-05T01:55:21.711Z,99640.59
2019-03-05T01:58:11.928Z,99642.75
2019-03-05T02:00:43.220Z,99642.59
2019-03-05T02:03:14.472Z,99648.37
2019-03-05T02:05:45.703Z,99649.02
2019-03-05T02:08:16.925Z,99649.20
2019-03-05T02:10:48.150Z,99660.63
2019-03-05T02:13:19.500Z,99644.75
2019-03-05T02:15:50.772Z,99654.84
2019-03-05T02:18:24.329Z,99649.55
2019-03-05T02:20:55.591Z,99650.54
2019-03-05T02:24:02.438Z,99644.73
2019-03-05T02:27:41.607Z,99665.73
2019-03-05T02:30:32.100Z,99668.53
2019-03-05T02:33:30.040Z,99673.29
2019-03-05T02:36:47.829Z,99683.23
2019-03-05T02:40:16.611Z,99689.90
2019-03-05T02:43:32.045Z,99691.27
2019-03-05T02:46:41.925Z,99689.17
2019-03-05T02:49:58.749Z,99691.23
2019-03-05T02:53:04.787Z,99685.30
2019-03-05T02:56:03.985Z,99680.80
2019-03-05T02:58:32.432Z,99686.73
2019-03-05T03:01:25.407Z,99685.04
2019-03-05T03:04:00.297Z,99682.63
2019-03-05T03:06:50.627Z,99682.27
2019-03-05T03:10:13.381Z,99682.22
2019-03-05T03:12:45.184Z,99681.05
2019-03-05T03:15:18.503Z,99681.83
2019-03-05T03:17:50.766Z,99688.27
2019-03-05T03:20:23.494Z,99688.64
2019-03-05T03:22:54.923Z,99688.05
2019-03-05T03:25:26.580Z,99691.38
2019-03-05T03:27:57.848Z,99687.82
2019-03-05T03:30:31.060Z,99684.67
2019-03-05T03:33:02.427Z,99677.93
2019-03-05T03:35:33.638Z,99671.33
2019-03-05T03:38:04.777Z,99685.16
2019-03-05T03:40:35.925Z,99680.65
2019-03-05T03:43:07.295Z,99675.60
2019-03-05T03:45:38.454Z,99693.25
2019-03-05T03:48:09.688Z,99687.69
2019-03-05T03:50:40.813Z,99702.23
2019-03-05T03:53:12.090Z,99696.14
2019-03-05T03:55:43.541Z,99709.19
2019-03-05T03:58:14.869Z,99708.86
2019-03-05T04:00:46.147Z,99706.29
2019-03-05T04:03:17.479Z,99707.49
2019-03-05T04:05:48.793Z,99714.05
2019-03-05T04:08:20.155Z,99715.41
2019-03-05T04:10:51.405Z,99713.97
2019-03-05T04:13:22.593Z,99703.09
2019-03-05T04:15:53.897Z,99724.38
2019-03-05T04:18:25.174Z,99712.66
2019-03-05T04:20:56.414Z,99715.34
2019-03-05T04:23:27.591Z,99707.94
2019-03-05T04:25:58.733Z,99707.52
2019-03-05T04:28:30.123Z,99716.58
2019-03-05T04:31:01.279Z,99722.70
2019-03-05T04:33:32.539Z,99728.88
2019-03-05T04:36:03.757Z,99730.38
2019-03-05T04:38:35.032Z,99717.06
2019-03-05T04:41:06.254Z,99721.98
2019-03-05T04:43:37.498Z,99729.78
2019-03-05T04:46:27.465Z,99724.64
2019-03-05T04:49:32.449Z,99720.72
2019-03-05T04:52:06.276Z,99727.37
2019-03-05T04:54:37.504Z,99733.99
2019-03-05T04:57:08.740Z,99728.71
2019-03-05T04:59:39.922Z,99723.25
2019-03-05T05:02:11.048Z,99729.06
2019-03-05T05:04:42.173Z,99733.69
2019-03-05T05:07:13.353Z,99720.35
2019-03-05T05:09:44.474Z,99736.86
2019-03-05T05:12:15.743Z,99728.61
2019-03-05T05:14:46.933Z,99726.80
2019-03-05T05:17:18.090Z,99725.28
2019-03-05T05:19:49.266Z,99714.92
2019-03-05T05:22:20.479Z,99720.33
2019-03-05T05:24:51.658Z,99719.86
2019-03-05T05:27:22.821Z,99734.22
2019-03-05T05:29:54.050Z,99726.49
2019-03-05T05:32:25.255Z,99721.38
2019-03-05T05:34:56.490Z,99711.14
2019-03-05T05:37:27.599Z,99712.80
2019-03-05T05:40:27.737Z,99716.45
2019-03-05T05:42:59.057Z,99718.94
2019-03-05T05:45:58.378Z,99711.02
2019-03-05T05:48:29.584Z,99715.45
2019-03-05T05:51:00.961Z,99720.08
2019-03-05T05:53:32.175Z,99719.64
2019-03-05T05:56:03.436Z,99715.05
2019-03-05T05:58:34.554Z,99723.78
2019-03-05T06:01:09.943Z,99716.03
2019-03-05T06:03:41.136Z,99722.46
2019-03-05T06:06:12.304Z,99725.08
2019-03-05T06:08:43.509Z,99723.28
2019-03-05T06:11:14.740Z,99721.09
2019-03-05T06:13:46.023Z,99723.38
2019-03-05T06:16:17.290Z,99719.41
2019-03-05T06:18:48.521Z,99731.95
2019-03-05T06:21:19.610Z,99716.14
2019-03-05T06:23:50.847Z,99724.45
2019-03-05T06:26:22.061Z,99731.75
2019-03-05T06:28:53.332Z,99730.58
2019-03-05T06:32:02.571Z,99735.38
2019-03-05T06:34:33.861Z,99740.00
2019-03-05T06:37:05.147Z,99727.45
2019-03-05T06:39:36.388Z,99736.89
2019-03-05T06:42:07.847Z,99725.16
2019-03-05T06:44:39.060Z,99744.48
2019-03-05T06:47:10.228Z,99743.00
2019-03-05T06:49:41.447Z,99747.14
2019-03-05T06:52:12.802Z,99749.30
2019-03-05T06:54:44.015Z,99757.06
2019-03-05T06:57:15.371Z,99758.20
2019-03-05T06:59:46.593Z,99754.90
2019-03-05T07:02:18.216Z,99760.52
2019-03-05T07:04:58.640Z,99767.45
2019-03-05T07:07:33.638Z,99764.00
2019-03-05T07:10:36.604Z,99774.05
2019-03-05T07:13:18.232Z,99771.92
2019-03-05T07:17:11.853Z,99776.52
2019-03-05T07:20:57.475Z,99787.73
2019-03-05T07:24:35.841Z,99788.73
2019-03-05T07:27:07.277Z,99795.98
2019-03-05T07:29:39.921Z,99797.66
2019-03-05T07:32:11.092Z,99792.83
2019-03-05T07:34:45.356Z,99804.26
2019-03-05T07:37:16.780Z,99807.84
2019-03-05T07:40:07.775Z,99809.50
2019-03-05T07:42:38.948Z,99819.34
2019-03-05T07:45:12.247Z,99817.58
2019-03-05T07:47:43.552Z,99825.63
2019-03-05T07:50:15.007Z,99830.49
2019-03-05T07:52:46.234Z,99831.16
2019-03-05T07:55:19.068Z,99824.19
2019-03-05T07:57:50.309Z,99844.21
2019-03-05T08:00:23.134Z,99847.39
2019-03-05T08:02:54.354Z,99833.30
2019-03-05T08:05:25.502Z,99823.37
2019-03-05T08:07:56.745Z,99836.34
2019-03-05T08:10:33.697Z,99839.46
2019-03-05T08:13:59.914Z,99858.67
2019-03-05T08:16:34.545Z,99851.28
2019-03-05T08:19:05.807Z,99855.58
2019-03-05T08:21:37.382Z,99866.60
2019-03-05T08:24:08.659Z,99859.25
2019-03-05T08:26:39.939Z,99871.77
2019-03-05T08:29:11.173Z,99870.11
2019-03-05T08:31:42.342Z,99883.07
2019-03-05T08:34:13.574Z,99884.75
2019-03-05T08:36:50.789Z,99892.16
2019-03-05T08:39:22.032Z,99891.83
2019-03-05T08:41:53.210Z,99893.16
2019-03-05T08:44:24.326Z,99890.33
2019-03-05T08:46:55.615Z,99897.59
2019-03-05T08:49:26.819Z,99898.50
2019-03-05T08:51:58.134Z,99901.48
2019-03-05T08:54:29.295Z,99906.80
2019-03-05T08:57:01.816Z,99908.12
2019-03-05T08:59:33.038Z,99919.41
2019-03-05T09:02:05.420Z,99914.89
2019-03-05T09:04:37.977Z,99916.56
2019-03-05T09:07:09.231Z,99920.14
2019-03-05T09:09:40.473Z,99925.78
2019-03-05T09:12:12.001Z,99920.83
2019-03-05T09:14:43.239Z,99936.53
2019-03-05T09:17:15.261Z,99929.47
2019-03-05T09:19:46.407Z,99930.17
2019-03-05T09:22:17.629Z,99932.67
2019-03-05T09:24:48.902Z,99929.16
2019-03-05T09:27:20.086Z,99930.17
2019-03-05T09:29:51.597Z,99931.15
2019-03-05T09:32:22.741Z,99938.94
2019-03-05T09:34:53.999Z,99939.18
2019-03-05T09:37:25.182Z,99947.11
2019-03-05T09:39:57.411Z,99951.79
2019-03-05T09:42:39.315Z,99942.43
2019-03-05T09:45:01.539Z,99945.84
2019-03-05T09:47:32.799Z,99944.34
2019-03-05T09:50:04.051Z,99944.96
2019-03-05T09:52:35.444Z,99954.77
2019-03-05T09:55:07.871Z,99955.23
2019-03-05T09:57:40.961Z,99948.72
2019-03-05T10:00:18.612Z,99963.17
2019-03-05T10:02:50.158Z,99961.33
2019-03-05T10:05:21.547Z,99956.28
2019-03-05T10:07:52.904Z,99953.30
2019-03-05T10:10:25.798Z,99953.96
2019-03-05T10:12:59.160Z,99952.47
2019-03-05T10:15:31.061Z,99949.83
2019-03-05T10:18:12.136Z,99954.94
2019-03-05T10:20:35.433Z,99960.74
2019-03-05T10:23:07.489Z,99955.47
2019-03-05T10:25:38.703Z,99959.75
2019-03-05T10:28:10.314Z,99968.67
2019-03-05T10:30:43.023Z,99956.34
2019-03-05T10:33:16.723Z,99957.14
2019-03-05T10:35:48.099Z,99967.17
2019-03-05T10:38:19.412Z,99971.63
2019-03-05T10:40:51.600Z,99971.70
2019-03-05T10:43:23.785Z,99969.86
2019-03-05T10:45:55.202Z,99973.91
2019-03-05T10:48:26.759Z,99965.07
2019-03-05T10:50:58.710Z,99974.28
2019-03-05T10:53:30.396Z,99970.63
2019-03-05T10:56:01.792Z,99978.91
2019-03-05T10:58:51.944Z,99987.64
2019-03-05T11:01:43.072Z,99983.41
2019-03-05T11:04:14.284Z,99995.44
2019-03-05T11:06:45.623Z,99983.90
2019-03-05T11:09:20.768Z,99991.56
2019-03-05T11:11:52.113Z,99994.76
2019-03-05T11:14:23.437Z,99991.16
2019-03-05T11:16:54.820Z,99987.41
2019-03-05T11:19:26.112Z,99983.48
2019-03-05T11:21:57.364Z,99989.95
2019-03-05T11:24:28.824Z,99991.55
2019-03-05T11:27:00.224Z,99993.46
2019-03-05T11:29:31.538Z,99992.58
2019-03-05T11:32:02.872Z,99989.37
2019-03-05T11:34:34.326Z,99992.38
2019-03-05T11:37:12.387Z,100002.36
2019-03-05T11:39:51.000Z,99998.02
2019-03-05T11:42:22.173Z,100002.70
2019-03-05T11:45:03.935Z,100011.20
2019-03-05T11:47:26.391Z,100014.09
2019-03-05T11:49:57.659Z,100010.16
2019-03-05T11:52:28.936Z,100017.72
2019-03-05T11:55:00.355Z,100016.58
2019-03-05T11:57:31.642Z,100034.18
2019-03-05T12:00:03.264Z,100016.66
2019-03-05T12:02:34.539Z,100027.84
2019-03-05T12:05:06.420Z,100030.58
2019-03-05T12:07:59.327Z,100037.16
2019-03-05T12:10:36.428Z,100028.16
2019-03-05T12:13:10.579Z,100039.40
2019-03-05T12:15:47.195Z,100036.77
2019-03-05T12:18:19.373Z,100037.94
2019-03-05T12:21:01.777Z,100036.61
2019-03-05T12:23:33.131Z,100038.90
2019-03-05T12:26:04.682Z,100041.01
2019-03-05T12:28:35.963Z,100041.55
2019-03-05T12:31:07.817Z,100042.47
2019-03-05T12:33:39.205Z,100032.16
2019-03-05T12:36:10.683Z,100037.30
2019-03-05T12:38:41.855Z,100035.17
2019-03-05T12:41:13.276Z,100046.21
2019-03-05T12:43:45.585Z,100038.81
2019-03-05T12:46:16.871Z,100046.67
2019-03-05T12:48:48.138Z,100045.81
2019-03-05T12:51:19.504Z,100049.78
2019-03-05T12:53:50.880Z,100051.00
2019-03-05T12:56:24.064Z,100058.37
2019-03-05T12:58:55.149Z,100049.89
2019-03-05T13:01:26.504Z,100055.04
2019-03-05T13:03:57.835Z,100053.24
2019-03-05T13:06:29.205Z,100047.73
2019-03-05T13:09:00.470Z,100068.05
2019-03-05T13:11:31.783Z,100054.36
2019-03-05T13:14:06.096Z,100057.37
2019-03-05T13:16:39.436Z,100059.73
2019-03-05T13:19:09.858Z,100057.74
2019-03-05T13:21:44.314Z,100061.73
2019-03-05T13:24:15.152Z,100068.66
2019-03-05T13:26:46.448Z,100064.83
2019-03-05T13:29:19.290Z,100060.87
2019-03-05T13:31:50.620Z,100068.98
2019-03-05T13:34:21.794Z,100065.73
2019-03-05T13:36:53.001Z,100064.77
2019-03-05T13:39:24.425Z,100072.52
2019-03-05T13:41:55.758Z,100069.27
2019-03-05T13:44:37.161Z,100062.14
2019-03-05T13:47:10.209Z,100062.28
2019-03-05T13:50:31.240Z,100067.66
2019-03-05T13:54:11.789Z,100076.03
2019-03-05T13:57:46.201Z,100088.74
2019-03-05T14:00:17.874Z,100092.92
2019-03-05T14:03:22.874Z,100100.37
2019-03-05T14:06:57.270Z,100097.92
2019-03-05T14:09:25.678Z,100100.91
2019-03-05T14:11:56.862Z,100105.86
2019-03-05T14:14:32.114Z,100111.14
2019-03-05T14:17:23.472Z,100111.61
2019-03-05T14:20:16.099Z,100111.11
2019-03-05T14:22:47.747Z,100106.13
2019-03-05T14:25:19.013Z,100112.09
2019-03-05T14:27:52.971Z,100106.67
2019-03-05T14:30:28.406Z,100107.76
2019-03-05T14:33:00.946Z,100101.68
2019-03-05T14:35:35.753Z,100114.58
2019-03-05T14:38:08.336Z,100113.90
2019-03-05T14:40:40.818Z,100125.34
2019-03-05T14:43:12.230Z,100123.38
2019-03-05T14:45:43.546Z,100134.70
2019-03-05T14:48:14.910Z,100131.96
2019-03-05T14:50:46.040Z,100136.17
2019-03-05T14:53:17.535Z,100139.42
2019-03-05T14:55:49.095Z,100130.31
2019-03-05T14:58:20.321Z,100130.95
2019-03-05T15:00:51.653Z,100137.64
2019-03-05T15:03:22.973Z,100131.46
2019-03-05T15:05:56.366Z,100142.67
2019-03-05T15:08:27.823Z,100145.19
2019-03-05T15:10:59.058Z,100151.05
2019-03-05T15:13:30.386Z,100152.39
2019-03-05T15:16:01.743Z,100152.08
2019-03-05T15:18:33.037Z,100156.22
2019-03-05T15:21:04.247Z,100151.75
2019-03-05T15:23:35.620Z,100149.73
2019-03-05T15:26:07.036Z,100152.45
2019-03-05T15:28:38.258Z,100156.09
2019-03-05T15:31:09.597Z,100153.80
2019-03-05T15:33:40.851Z,100158.59
2019-03-05T15:36:23.786Z,100171.03
2019-03-05T15:38:47.463Z,100162.09
2019-03-05T15:41:18.801Z,100169.78
2019-03-05T15:43:50.053Z,100168.74
2019-03-05T15:46:21.333Z,100164.16
2019-03-05T15:48:52.762Z,100159.27
2019-03-05T15:51:24.002Z,100158.73
2019-03-05T15:53:55.196Z,100165.63
2019-03-05T15:56:26.506Z,100162.36
2019-03-05T15:58:57.741Z,100166.22
2019-03-05T16:01:29.000Z,100168.80
2019-03-05T16:04:00.214Z,100176.78
2019-03-05T16:06:34.067Z,100180.61
2019-03-05T16:09:05.266Z,100177.78
2019-03-05T16:11:36.526Z,100184.06
2019-03-05T16:14:07.780Z,100188.20
2019-03-05T16:16:41.846Z,100192.86
2019-03-05T16:19:16.595Z,100192.69
2019-03-05T16:21:46.213Z,100189.03
2019-03-05T16:24:17.445Z,100196.16
2019-03-05T16:26:48.647Z,100198.17
2019-03-05T16:29:20.861Z,100200.47
2019-03-05T16:32:23.056Z,100199.73
2019-03-05T16:35:18.513Z,100199.29
2019-03-05T16:38:06.583Z,100198.41
2019-03-05T16:40:55.856Z,100204.45
2019-03-05T16:43:49.188Z,100207.46
2019-03-05T16:46:41.914Z,100205.12
2019-03-05T16:49:31.952Z,100211.58
2019-03-05T16:52:40.113Z,100214.39
2019-03-05T16:55:28.656Z,100216.08
2019-03-05T16:58:18.678Z,100222.71
2019-03-05T17:01:07.312Z,100223.20
2019-03-05T17:04:12.669Z,100232.00
2019-03-05T17:07:17.900Z,100241.61
2019-03-05T17:10:02.454Z,100243.77
2019-03-05T17:12:34.029Z,100251.42
2019-03-05T17:15:22.751Z,100243.95
2019-03-05T17:17:53.975Z,100246.45
2019-03-05T17:20:25.095Z,100253.91
2019-03-05T17:22:56.452Z,100253.88
2019-03-05T17:25:27.804Z,100262.48
2019-03-05T17:27:59.146Z,100264.77
2019-03-05T17:30:30.391Z,100270.63
2019-03-05T17:33:01.740Z,100271.59
2019-03-05T17:35:33.256Z,100274.56
2019-03-05T17:38:04.734Z,100271.78
2019-03-05T17:40:35.960Z,100281.39
2019-03-05T17:43:07.597Z,100277.42
2019-03-05T17:45:39.232Z,100274.91
2019-03-05T17:48:10.538Z,100275.36
2019-03-05T17:50:44.696Z,100280.95
2019-03-05T17:53:18.927Z,100287.06
2019-03-05T17:55:50.518Z,100286.78
2019-03-05T17:58:21.950Z,100291.67
2019-03-05T18:00:53.942Z,100298.70
2019-03-05T18:03:25.202Z,100303.59
2019-03-05T18:05:56.776Z,100310.42
2019-03-05T18:08:28.022Z,100311.98
2019-03-05T18:11:00.975Z,100313.63
2019-03-05T18:13:32.478Z,100313.45
2019-03-05T18:16:03.870Z,100308.68
2019-03-05T18:18:38.419Z,100311.91
2019-03-05T18:21:09.719Z,100316.97
2019-03-05T18:23:42.682Z,100324.43
2019-03-05T18:26:14.299Z,100323.13
2019-03-05T18:28:45.602Z,100318.20
2019-03-05T18:31:16.801Z,100323.19
2019-03-05T18:33:48.039Z,100328.92
2019-03-05T18:36:19.296Z,100325.24
2019-03-05T18:38:50.551Z,100331.36
2019-03-05T18:41:21.774Z,100333.33
2019-03-05T18:43:53.046Z,100341.48
2019-03-05T18:46:24.283Z,100336.33
2019-03-05T18:48:55.698Z,100337.75
2019-03-05T18:51:27.244Z,100343.66
2019-03-05T18:53:58.578Z,100352.92
2019-03-05T18:56:29.935Z,100351.84
2019-03-05T18:59:01.199Z,100355.27
2019-03-05T19:01:32.470Z,100352.92
2019-03-05T19:04:06.019Z,100354.80
2019-03-05T19:06:37.412Z,100359.41
2019-03-05T19:09:09.621Z,100348.63
2019-03-05T19:11:41.022Z,100355.83
2019-03-05T19:14:12.247Z,100357.19
2019-03-05T19:16:43.509Z,100360.61
2019-03-05T19:19:14.755Z,100359.33
2019-03-05T19:21:46.158Z,100357.88
2019-03-05T19:24:17.360Z,100365.06
2019-03-05T19:26:48.663Z,100370.45
2019-03-05T19:29:20.145Z,100365.83
2019-03-05T19:31:52.864Z,100361.63
2019-03-05T19:34:28.298Z,100368.56
2019-03-05T19:37:01.649Z,100365.78
2019-03-05T19:39:34.562Z,100372.73
2019-03-05T19:42:09.827Z,100380.72
2019-03-05T19:44:42.824Z,100385.30
2019-03-05T19:47:14.115Z,100384.70
2019-03-05T19:49:45.398Z,100376.78
2019-03-05T19:52:16.866Z,100387.97
2019-03-05T19:54:48.158Z,100389.82
2019-03-05T19:57:19.451Z,100388.64
2019-03-05T19:59:50.860Z,100393.16
2019-03-05T20:02:22.367Z,100399.13
2019-03-05T20:04:53.658Z,100392.70
2019-03-05T20:07:26.742Z,100396.16
2019-03-05T20:09:59.955Z,100396.44
2019-03-05T20:12:34.059Z,100402.84
2019-03-05T20:15:06.093Z,100399.95
2019-03-05T20:17:37.454Z,100397.21
2019-03-05T20:20:10.509Z,100397.55
2019-03-05T20:22:41.917Z,100397.28
2019-03-05T20:25:18.863Z,100395.92
2019-03-05T20:27:51.557Z,100397.36
2019-03-05T20:30:27.034Z,100398.95
2019-03-05T20:32:58.240Z,100409.04
2019-03-05T20:35:29.562Z,100396.89
2019-03-05T20:38:00.877Z,100399.02
2019-03-05T20:40:32.368Z,100405.39
2019-03-05T20:43:03.809Z,100403.05
2019-03-05T20:45:35.233Z,100404.08
2019-03-05T20:48:07.172Z,100400.00
2019-03-05T20:50:38.536Z,100403.82
2019-03-05T20:53:09.803Z,100408.70
2019-03-05T20:55:41.054Z,100411.67
2019-03-05T20:58:12.276Z,100414.19
2019-03-05T21:00:44.036Z,100410.22
2019-03-05T21:03:15.342Z,100410.42
2019-03-05T21:05:46.735Z,100410.55
2019-03-05T21:08:18.040Z,100418.77
2019-03-05T21:10:51.169Z,100410.55
2019-03-05T21:13:22.611Z,100417.42
2019-03-05T21:15:54.066Z,100407.72
2019-03-05T21:18:25.670Z,100411.86
2019-03-05T21:20:57.079Z,100403.05
2019-03-05T21:23:28.359Z,100408.17
2019-03-05T21:25:59.655Z,100401.09
2019-03-05T21:28:33.420Z,100400.55
2019-03-05T21:31:04.763Z,100405.20
2019-03-05T21:33:36.072Z,100405.78
2019-03-05T21:36:08.207Z,100401.77
2019-03-05T21:38:39.521Z,100416.03
2019-03-05T21:41:11.144Z,100408.89
2019-03-05T21:43:42.676Z,100404.66
2019-03-05T21:46:18.551Z,100408.88
2019-03-05T21:48:49.893Z,100415.34
2019-03-05T21:51:21.161Z,100406.95
2019-03-05T21:53:52.496Z,100421.42
2019-03-05T21:56:23.695Z,100419.11
2019-03-05T21:58:54.993Z,100425.23
2019-03-05T22:01:26.283Z,100428.54
2019-03-05T22:04:16.529Z,100432.12
2019-03-05T22:06:47.775Z,100427.56
2019-03-05T22:09:21.466Z,100428.80
2019-03-05T22:11:52.827Z,100427.31
2019-03-05T22:14:24.146Z,100431.06
2019-03-05T22:16:55.504Z,100425.48
2019-03-05T22:19:26.912Z,100420.88
2019-03-05T22:21:58.165Z,100425.27
2019-03-05T22:24:29.412Z,100423.44
2019-03-05T22:27:00.654Z,100423.35
2019-03-05T22:29:31.837Z,100419.86
2019-03-05T22:32:03.387Z,100420.33
2019-03-05T22:34:34.606Z,100411.91
2019-03-05T22:37:09.133Z,100404.50
2019-03-05T22:39:40.369Z,100409.78
2019-03-05T22:42:11.790Z,100406.00
2019-03-05T22:44:43.481Z,100411.66
2019-03-05T22:47:14.776Z,100409.53
2019-03-05T22:49:45.994Z,100413.27
2019-03-05T22:52:17.969Z,100417.53
2019-03-05T22:54:50.301Z,100414.50
2019-03-05T22:57:21.435Z,100413.97
2019-03-05T22:59:52.667Z,100409.46
2019-03-05T23:02:23.957Z,100413.20
2019-03-05T23:04:55.884Z,100417.92
2019-03-05T23:07:30.217Z,100404.20
2019-03-05T23:10:01.465Z,100410.48
2019-03-05T23:12:32.930Z,100403.73
2019-03-05T23:15:04.444Z,100398.66
2019-03-05T23:17:35.684Z,100386.86
2019-03-05T23:20:07.353Z,100392.16
2019-03-05T23:22:38.819Z,100386.52
2019-03-05T23:25:10.631Z,100383.43
2019-03-05T23:27:42.017Z,100379.97
2019-03-05T23:30:14.730Z,100378.71
2019-03-05T23:32:48.437Z,100376.06
2019-03-05T23:35:19.792Z,100374.97
2019-03-05T23:37:51.277Z,100379.50
2019-03-05T23:40:22.699Z,100375.96
2019-03-05T23:42:54.054Z,100368.28
2019-03-05T23:45:25.398Z,100361.08
2019-03-05T23:47:56.661Z,100363.11
2019-03-05T23:50:27.895Z,100359.93
2019-03-05T23:52:59.493Z,100363.60
2019-03-05T23:55:31.431Z,100357.75
2019-03-05T23:58:02.793Z,100358.73
